sensor_id;sensor_type;location;lat;lon;timestamp;pressure;altitude;pressure_sealevel;temperature;humidity
68544;BME280;55534;52.222;5.156;2023-05-28T00:01:29;102238.03;;;14.81;100.00
68544;BME280;55534;52.222;5.156;2023-05-28T00:03:54;102227.13;;;14.79;100.00
68544;BME280;55534;52.222;5.156;2023-05-28T00:06:20;102222.56;;;14.76;100.00
68544;BME280;55534;52.222;5.156;2023-05-28T00:08:45;102218.81;;;14.73;100.00
68544;BME280;55534;52.222;5.156;2023-05-28T00:11:11;102212.03;;;14.72;100.00
68544;BME280;55534;52.222;5.156;2023-05-28T00:13:37;102218.44;;;14.71;100.00
68544;BME280;55534;52.222;5.156;2023-05-28T00:16:02;102208.63;;;14.68;100.00
68544;BME280;55534;52.222;5.156;2023-05-28T00:18:28;102205.63;;;14.66;100.00
68544;BME280;55534;52.222;5.156;2023-05-28T00:20:54;102200.72;;;14.64;100.00
68544;BME280;55534;52.222;5.156;2023-05-28T00:23:19;102202.56;;;14.60;100.00
68544;BME280;55534;52.222;5.156;2023-05-28T00:25:46;102208.22;;;14.59;100.00
68544;BME280;55534;52.222;5.156;2023-05-28T00:28:11;102205.53;;;14.55;100.00
68544;BME280;55534;52.222;5.156;2023-05-28T00:30:37;102181.78;;;14.41;100.00
68544;BME280;55534;52.222;5.156;2023-05-28T00:33:03;102197.22;;;14.49;100.00
68544;BME280;55534;52.222;5.156;2023-05-28T00:35:28;102172.75;;;14.35;100.00
68544;BME280;55534;52.222;5.156;2023-05-28T00:37:54;102179.91;;;14.41;100.00
68544;BME280;55534;52.222;5.156;2023-05-28T00:40:19;102170.13;;;14.38;100.00
68544;BME280;55534;52.222;5.156;2023-05-28T00:42:45;102140.28;;;14.12;100.00
68544;BME280;55534;52.222;5.156;2023-05-28T00:45:11;102151.19;;;14.15;100.00
68544;BME280;55534;52.222;5.156;2023-05-28T00:47:41;102109.75;;;13.93;100.00
68544;BME280;55534;52.222;5.156;2023-05-28T00:50:07;102161.41;;;14.23;100.00
68544;BME280;55534;52.222;5.156;2023-05-28T00:52:33;102140.63;;;14.07;100.00
68544;BME280;55534;52.222;5.156;2023-05-28T00:55:00;102158.72;;;14.16;100.00
68544;BME280;55534;52.222;5.156;2023-05-28T00:57:25;102153.81;;;14.15;100.00
68544;BME280;55534;52.222;5.156;2023-05-28T00:59:52;102150.06;;;14.12;100.00
68544;BME280;55534;52.222;5.156;2023-05-28T01:02:17;102159.84;;;14.11;100.00
68544;BME280;55534;52.222;5.156;2023-05-28T01:04:43;102163.19;;;14.08;100.00
68544;BME280;55534;52.222;5.156;2023-05-28T01:07:10;102160.91;;;14.07;100.00
68544;BME280;55534;52.222;5.156;2023-05-28T01:09:35;102159.03;;;14.04;100.00
68544;BME280;55534;52.222;5.156;2023-05-28T01:12:02;102162.78;;;14.06;100.00
68544;BME280;55534;52.222;5.156;2023-05-28T01:14:28;102168.41;;;14.05;100.00
68544;BME280;55534;52.222;5.156;2023-05-28T01:16:55;102162.78;;;14.03;100.00
68544;BME280;55534;52.222;5.156;2023-05-28T01:19:24;102171.00;;;14.01;100.00
68544;BME280;55534;52.222;5.156;2023-05-28T01:21:56;102112.19;;;13.65;100.00
68544;BME280;55534;52.222;5.156;2023-05-28T01:24:24;102151.75;;;13.86;100.00
68544;BME280;55534;52.222;5.156;2023-05-28T01:26:50;102167.63;;;13.97;100.00
68544;BME280;55534;52.222;5.156;2023-05-28T01:29:17;102171.38;;;13.96;100.00
68544;BME280;55534;52.222;5.156;2023-05-28T01:31:44;102168.34;;;13.94;100.00
68544;BME280;55534;52.222;5.156;2023-05-28T01:34:10;102173.22;;;13.96;100.00
68544;BME280;55534;52.222;5.156;2023-05-28T01:36:42;102169.84;;;13.95;100.00
68544;BME280;55534;52.222;5.156;2023-05-28T01:39:09;102169.84;;;13.95;100.00
68544;BME280;55534;52.222;5.156;2023-05-28T01:41:38;102178.13;;;13.97;100.00
68544;BME280;55534;52.222;5.156;2023-05-28T01:44:05;102178.13;;;13.97;100.00
68544;BME280;55534;52.222;5.156;2023-05-28T01:46:33;102156.63;;;13.84;100.00
68544;BME280;55534;52.222;5.156;2023-05-28T01:49:00;102176.25;;;13.98;100.00
68544;BME280;55534;52.222;5.156;2023-05-28T01:51:25;102158.50;;;13.84;100.00
68544;BME280;55534;52.222;5.156;2023-05-28T01:53:52;102159.72;;;13.97;100.00
68544;BME280;55534;52.222;5.156;2023-05-28T01:56:17;102154.81;;;13.96;100.00
68544;BME280;55534;52.222;5.156;2023-05-28T01:58:43;102162.69;;;13.92;100.00
68544;BME280;55534;52.222;5.156;2023-05-28T02:01:16;102166.06;;;13.89;100.00
68544;BME280;55534;52.222;5.156;2023-05-28T02:03:43;102136.28;;;13.74;100.00
68544;BME280;55534;52.222;5.156;2023-05-28T02:06:08;102149.91;;;13.87;100.00
68544;BME280;55534;52.222;5.156;2023-05-28T02:08:34;102157.00;;;13.86;100.00
68544;BME280;55534;52.222;5.156;2023-05-28T02:11:00;102154.00;;;13.84;100.00
68544;BME280;55534;52.222;5.156;2023-05-28T02:13:25;102156.25;;;13.82;100.00
68544;BME280;55534;52.222;5.156;2023-05-28T02:15:54;102161.09;;;13.80;100.00
68544;BME280;55534;52.222;5.156;2023-05-28T02:18:20;102157.34;;;13.78;100.00
68544;BME280;55534;52.222;5.156;2023-05-28T02:20:45;102159.19;;;13.73;100.00
68544;BME280;55534;52.222;5.156;2023-05-28T02:23:11;102150.88;;;13.68;100.00
68544;BME280;55534;52.222;5.156;2023-05-28T02:25:36;102153.13;;;13.66;100.00
68544;BME280;55534;52.222;5.156;2023-05-28T02:28:03;102154.59;;;13.63;100.00
68544;BME280;55534;52.222;5.156;2023-05-28T02:30:29;102157.59;;;13.62;100.00
68544;BME280;55534;52.222;5.156;2023-05-28T02:32:54;102153.06;;;13.59;100.00
68544;BME280;55534;52.222;5.156;2023-05-28T02:35:20;102168.44;;;13.57;100.00
68544;BME280;55534;52.222;5.156;2023-05-28T02:37:49;102141.25;;;13.38;100.00
68544;BME280;55534;52.222;5.156;2023-05-28T02:40:15;102170.63;;;13.51;100.00
68544;BME280;55534;52.222;5.156;2023-05-28T02:42:40;102158.97;;;13.48;100.00
68544;BME280;55534;52.222;5.156;2023-05-28T02:45:06;102160.09;;;13.47;100.00
68544;BME280;55534;52.222;5.156;2023-05-28T02:47:32;102159.69;;;13.45;100.00
68544;BME280;55534;52.222;5.156;2023-05-28T02:49:58;102132.47;;;13.23;100.00
68544;BME280;55534;52.222;5.156;2023-05-28T02:52:23;102163.78;;;13.39;100.00
68544;BME280;55534;52.222;5.156;2023-05-28T02:54:49;102111.25;;;13.02;100.00
68544;BME280;55534;52.222;5.156;2023-05-28T02:57:14;102172.72;;;13.34;100.00
68544;BME280;55534;52.222;5.156;2023-05-28T02:59:40;102177.56;;;13.32;100.00
68544;BME280;55534;52.222;5.156;2023-05-28T03:02:06;102175.66;;;13.29;100.00
68544;BME280;55534;52.222;5.156;2023-05-28T03:04:32;102157.50;;;13.17;100.00
68544;BME280;55534;52.222;5.156;2023-05-28T03:06:58;102176.75;;;13.28;100.00
68544;BME280;55534;52.222;5.156;2023-05-28T03:09:24;102178.63;;;13.28;100.00
68544;BME280;55534;52.222;5.156;2023-05-28T03:11:49;102163.22;;;13.26;100.00
68544;BME280;55534;52.222;5.156;2023-05-28T03:14:15;102173.00;;;13.26;100.00
68544;BME280;55534;52.222;5.156;2023-05-28T03:16:41;102177.09;;;13.23;100.00
68544;BME280;55534;52.222;5.156;2023-05-28T03:19:15;102170.69;;;13.21;100.00
68544;BME280;55534;52.222;5.156;2023-05-28T03:21:41;102153.31;;;13.09;100.00
68544;BME280;55534;52.222;5.156;2023-05-28T03:24:08;102180.78;;;13.19;100.00
68544;BME280;55534;52.222;5.156;2023-05-28T03:26:41;102177.41;;;13.18;100.00
68544;BME280;55534;52.222;5.156;2023-05-28T03:29:07;102176.66;;;13.18;100.00
68544;BME280;55534;52.222;5.156;2023-05-28T03:31:45;102171.41;;;13.18;100.00
68544;BME280;55534;52.222;5.156;2023-05-28T03:34:13;102174.78;;;13.18;100.00
68544;BME280;55534;52.222;5.156;2023-05-28T03:36:38;102178.16;;;13.19;100.00
68544;BME280;55534;52.222;5.156;2023-05-28T03:39:07;102168.41;;;13.19;100.00
68544;BME280;55534;52.222;5.156;2023-05-28T03:41:34;102153.28;;;13.05;100.00
68544;BME280;55534;52.222;5.156;2023-05-28T03:44:01;102154.03;;;13.06;100.00
68544;BME280;55534;52.222;5.156;2023-05-28T03:46:26;102167.63;;;13.15;100.00
68544;BME280;55534;52.222;5.156;2023-05-28T03:48:52;102171.78;;;13.16;100.00
68544;BME280;55534;52.222;5.156;2023-05-28T03:51:17;102165.38;;;13.13;100.00
68544;BME280;55534;52.222;5.156;2023-05-28T03:53:43;102161.22;;;13.12;100.00
68544;BME280;55534;52.222;5.156;2023-05-28T03:56:09;102168.34;;;13.12;100.00
68544;BME280;55534;52.222;5.156;2023-05-28T03:58:34;102157.47;;;13.10;100.00
68544;BME280;55534;52.222;5.156;2023-05-28T04:01:00;102169.06;;;13.09;100.00
68544;BME280;55534;52.222;5.156;2023-05-28T04:03:26;102172.03;;;13.07;100.00
68544;BME280;55534;52.222;5.156;2023-05-28T04:05:51;102168.28;;;13.05;100.00
68544;BME280;55534;52.222;5.156;2023-05-28T04:08:18;102173.13;;;13.03;100.00
68544;BME280;55534;52.222;5.156;2023-05-28T04:10:43;102162.84;;;12.87;100.00
68544;BME280;55534;52.222;5.156;2023-05-28T04:13:09;102143.19;;;12.73;100.00
68544;BME280;55534;52.222;5.156;2023-05-28T04:15:34;102186.22;;;12.99;100.00
68544;BME280;55534;52.222;5.156;2023-05-28T04:18:00;102186.56;;;12.98;100.00
68544;BME280;55534;52.222;5.156;2023-05-28T04:20:26;102181.66;;;12.96;100.00
68544;BME280;55534;52.222;5.156;2023-05-28T04:22:51;102184.28;;;12.96;100.00
68544;BME280;55534;52.222;5.156;2023-05-28T04:25:17;102189.13;;;12.94;100.00
68544;BME280;55534;52.222;5.156;2023-05-28T04:27:46;102188.38;;;12.93;100.00
68544;BME280;55534;52.222;5.156;2023-05-28T04:30:12;102193.25;;;12.91;100.00
68544;BME280;55534;52.222;5.156;2023-05-28T04:32:38;102187.25;;;12.91;100.00
68544;BME280;55534;52.222;5.156;2023-05-28T04:35:07;102179.72;;;12.89;100.00
68544;BME280;55534;52.222;5.156;2023-05-28T04:37:37;102120.69;;;12.42;100.00
68544;BME280;55534;52.222;5.156;2023-05-28T04:40:05;102183.06;;;12.86;100.00
68544;BME280;55534;52.222;5.156;2023-05-28T04:42:31;102183.81;;;12.87;100.00
68544;BME280;55534;52.222;5.156;2023-05-28T04:44:57;102175.41;;;12.74;100.00
68544;BME280;55534;52.222;5.156;2023-05-28T04:47:24;102190.53;;;12.84;100.00
68544;BME280;55534;52.222;5.156;2023-05-28T04:49:50;102178.84;;;12.78;100.00
68544;BME280;55534;52.222;5.156;2023-05-28T04:52:16;102096.81;;;12.21;100.00
68544;BME280;55534;52.222;5.156;2023-05-28T04:54:45;102183.44;;;12.85;100.00
68544;BME280;55534;52.222;5.156;2023-05-28T04:57:10;102107.50;;;12.35;100.00
68544;BME280;55534;52.222;5.156;2023-05-28T04:59:36;102153.19;;;12.64;100.00
68544;BME280;55534;52.222;5.156;2023-05-28T05:02:02;102089.81;;;12.28;100.00
68544;BME280;55534;52.222;5.156;2023-05-28T05:04:29;102119.28;;;12.48;100.00
68544;BME280;55534;52.222;5.156;2023-05-28T05:06:54;102099.66;;;12.39;100.00
68544;BME280;55534;52.222;5.156;2023-05-28T05:09:20;102180.53;;;12.93;100.00
68544;BME280;55534;52.222;5.156;2023-05-28T05:11:46;102170.25;;;12.81;100.00
68544;BME280;55534;52.222;5.156;2023-05-28T05:14:12;102195.56;;;12.97;100.00
68544;BME280;55534;52.222;5.156;2023-05-28T05:16:37;102201.94;;;12.99;100.00
68544;BME280;55534;52.222;5.156;2023-05-28T05:19:03;102097.31;;;12.30;100.00
68544;BME280;55534;52.222;5.156;2023-05-28T05:21:29;102124.59;;;12.55;100.00
68544;BME280;55534;52.222;5.156;2023-05-28T05:23:54;102162.84;;;12.87;100.00
68544;BME280;55534;52.222;5.156;2023-05-28T05:26:20;102125.38;;;12.60;100.00
68544;BME280;55534;52.222;5.156;2023-05-28T05:28:46;102148.91;;;12.83;100.00
68544;BME280;55534;52.222;5.156;2023-05-28T05:31:12;102199.53;;;13.17;100.00
68544;BME280;55534;52.222;5.156;2023-05-28T05:33:40;102193.56;;;13.20;100.00
68544;BME280;55534;52.222;5.156;2023-05-28T05:36:44;102162.97;;;13.01;100.00
68544;BME280;55534;52.222;5.156;2023-05-28T05:39:22;102181.53;;;13.19;100.00
68544;BME280;55534;52.222;5.156;2023-05-28T05:42:03;102180.13;;;13.25;100.00
68544;BME280;55534;52.222;5.156;2023-05-28T05:44:32;102155.63;;;13.14;100.00
68544;BME280;55534;52.222;5.156;2023-05-28T05:46:58;102180.25;;;13.36;100.00
68544;BME280;55534;52.222;5.156;2023-05-28T05:49:24;102147.78;;;13.18;100.00
68544;BME280;55534;52.222;5.156;2023-05-28T05:51:50;102163.34;;;13.33;100.00
68544;BME280;55534;52.222;5.156;2023-05-28T05:54:15;102177.41;;;13.52;100.00
68544;BME280;55534;52.222;5.156;2023-05-28T05:56:41;102193.63;;;13.65;100.00
68544;BME280;55534;52.222;5.156;2023-05-28T05:59:06;102169.88;;;13.50;100.00
68544;BME280;55534;52.222;5.156;2023-05-28T06:01:32;102178.63;;;13.62;100.00
68544;BME280;55534;52.222;5.156;2023-05-28T06:03:57;102166.91;;;13.56;100.00
68544;BME280;55534;52.222;5.156;2023-05-28T06:06:41;102182.09;;;13.73;100.00
68544;BME280;55534;52.222;5.156;2023-05-28T06:09:25;102194.22;;;13.88;100.00
68544;BME280;55534;52.222;5.156;2023-05-28T06:11:54;102175.72;;;13.78;100.00
68544;BME280;55534;52.222;5.156;2023-05-28T06:14:19;102193.81;;;13.86;100.00
68544;BME280;55534;52.222;5.156;2023-05-28T06:16:46;102167.03;;;13.70;100.00
68544;BME280;55534;52.222;5.156;2023-05-28T06:19:11;102194.22;;;13.92;100.00
68544;BME280;55534;52.222;5.156;2023-05-28T06:21:36;102216.53;;;14.12;100.00
68544;BME280;55534;52.222;5.156;2023-05-28T06:24:03;102207.16;;;14.11;100.00
68544;BME280;55534;52.222;5.156;2023-05-28T06:26:28;102149.75;;;13.69;100.00
68544;BME280;55534;52.222;5.156;2023-05-28T06:28:55;102178.09;;;13.93;100.00
68544;BME280;55534;52.222;5.156;2023-05-28T06:31:20;102168.69;;;13.89;100.00
68544;BME280;55534;52.222;5.156;2023-05-28T06:33:46;102197.78;;;14.14;100.00
68544;BME280;55534;52.222;5.156;2023-05-28T06:36:11;102184.22;;;14.08;100.00
68544;BME280;55534;52.222;5.156;2023-05-28T06:38:37;102223.84;;;14.37;100.00
68544;BME280;55534;52.222;5.156;2023-05-28T06:41:02;102184.66;;;14.18;100.00
68544;BME280;55534;52.222;5.156;2023-05-28T06:43:32;102171.16;;;14.19;100.00
68544;BME280;55534;52.222;5.156;2023-05-28T06:46:03;102213.00;;;14.49;100.00
68544;BME280;55534;52.222;5.156;2023-05-28T06:48:29;102123.69;;;13.94;100.00
68544;BME280;55534;52.222;5.156;2023-05-28T06:50:54;102199.88;;;14.46;100.00
68544;BME280;55534;52.222;5.156;2023-05-28T06:53:21;102209.34;;;14.58;100.00
68544;BME280;55534;52.222;5.156;2023-05-28T06:55:47;102212.38;;;14.63;100.00
68544;BME280;55534;52.222;5.156;2023-05-28T06:58:33;102199.94;;;14.57;100.00
68544;BME280;55534;52.222;5.156;2023-05-28T07:01:01;102239.56;;;14.89;100.00
68544;BME280;55534;52.222;5.156;2023-05-28T07:03:46;102236.97;;;14.96;100.00
68544;BME280;55534;52.222;5.156;2023-05-28T07:06:18;102238.84;;;15.03;100.00
68544;BME280;55534;52.222;5.156;2023-05-28T07:08:44;102218.16;;;14.94;100.00
68544;BME280;55534;52.222;5.156;2023-05-28T07:11:11;102211.38;;;14.97;100.00
68544;BME280;55534;52.222;5.156;2023-05-28T07:13:37;102205.75;;;15.02;100.00
68544;BME280;55534;52.222;5.156;2023-05-28T07:16:03;102201.63;;;15.01;100.00
68544;BME280;55534;52.222;5.156;2023-05-28T07:18:29;102246.47;;;15.33;100.00
68544;BME280;55534;52.222;5.156;2023-05-28T07:20:54;102220.47;;;15.24;100.00
68544;BME280;55534;52.222;5.156;2023-05-28T07:23:24;102180.91;;;14.96;100.00
68544;BME280;55534;52.222;5.156;2023-05-28T07:25:51;102263.09;;;15.52;100.00
68544;BME280;55534;52.222;5.156;2023-05-28T07:28:17;102226.53;;;15.25;100.00
68544;BME280;55534;52.222;5.156;2023-05-28T07:30:42;102243.84;;;15.33;100.00
68544;BME280;55534;52.222;5.156;2023-05-28T07:33:08;102242.34;;;15.39;100.00
68544;BME280;55534;52.222;5.156;2023-05-28T07:35:35;102248.38;;;15.43;100.00
68544;BME280;55534;52.222;5.156;2023-05-28T07:38:03;102241.25;;;15.44;100.00
68544;BME280;55534;52.222;5.156;2023-05-28T07:40:29;102269.88;;;15.63;100.00
68544;BME280;55534;52.222;5.156;2023-05-28T07:43:02;102274.44;;;15.77;100.00
68544;BME280;55534;52.222;5.156;2023-05-28T07:45:27;102255.19;;;15.69;100.00
68544;BME280;55534;52.222;5.156;2023-05-28T07:47:54;102242.41;;;15.72;100.00
68544;BME280;55534;52.222;5.156;2023-05-28T07:50:40;102281.63;;;16.05;100.00
68544;BME280;55534;52.222;5.156;2023-05-28T07:53:13;102266.53;;;16.02;100.00
68544;BME280;55534;52.222;5.156;2023-05-28T07:55:39;102275.59;;;16.12;100.00
68544;BME280;55534;52.222;5.156;2023-05-28T07:58:06;102245.44;;;16.06;100.00
68544;BME280;55534;52.222;5.156;2023-05-28T08:00:32;102254.09;;;16.17;100.00
68544;BME280;55534;52.222;5.156;2023-05-28T08:03:00;102250.69;;;16.24;100.00
68544;BME280;55534;52.222;5.156;2023-05-28T08:05:35;102256.34;;;16.37;100.00
68544;BME280;55534;52.222;5.156;2023-05-28T08:08:00;102247.69;;;16.40;100.00
68544;BME280;55534;52.222;5.156;2023-05-28T08:10:26;102261.56;;;16.58;100.00
68544;BME280;55534;52.222;5.156;2023-05-28T08:12:52;102232.59;;;16.48;100.00
68544;BME280;55534;52.222;5.156;2023-05-28T08:15:19;102207.69;;;16.41;100.00
68544;BME280;55534;52.222;5.156;2023-05-28T08:17:45;102272.06;;;16.87;100.00
68544;BME280;55534;52.222;5.156;2023-05-28T08:20:15;102255.13;;;16.84;100.00
68544;BME280;55534;52.222;5.156;2023-05-28T08:23:03;102284.78;;;17.17;100.00
68544;BME280;55534;52.222;5.156;2023-05-28T08:25:30;102227.56;;;16.78;100.00
68544;BME280;55534;52.222;5.156;2023-05-28T08:28:03;102288.09;;;17.36;100.00
68544;BME280;55534;52.222;5.156;2023-05-28T08:30:30;102255.31;;;17.22;100.00
68544;BME280;55534;52.222;5.156;2023-05-28T08:33:01;102274.44;;;17.48;100.00
68544;BME280;55534;52.222;5.156;2023-05-28T08:35:27;102210.47;;;17.08;100.00
68544;BME280;55534;52.222;5.156;2023-05-28T08:37:53;102245.00;;;17.42;100.00
68544;BME280;55534;52.222;5.156;2023-05-28T08:40:30;102259.59;;;17.65;100.00
68544;BME280;55534;52.222;5.156;2023-05-28T08:42:56;102223.06;;;17.49;100.00
68544;BME280;55534;52.222;5.156;2023-05-28T08:45:21;102225.94;;;17.69;100.00
68544;BME280;55534;52.222;5.156;2023-05-28T08:47:48;102254.13;;;17.94;100.00
68544;BME280;55534;52.222;5.156;2023-05-28T08:50:19;102279.97;;;18.20;100.00
68544;BME280;55534;52.222;5.156;2023-05-28T08:52:59;102290.06;;;18.33;100.00
68544;BME280;55534;52.222;5.156;2023-05-28T08:55:25;102267.09;;;18.22;100.00
68544;BME280;55534;52.222;5.156;2023-05-28T08:57:58;102258.41;;;18.22;100.00
68544;BME280;55534;52.222;5.156;2023-05-28T09:00:23;102268.47;;;18.34;100.00
68544;BME280;55534;52.222;5.156;2023-05-28T09:03:09;102256.03;;;18.31;100.00
68544;BME280;55534;52.222;5.156;2023-05-28T09:05:35;102287.06;;;18.65;100.00
68544;BME280;55534;52.222;5.156;2023-05-28T09:08:06;102278.66;;;18.74;100.00
68544;BME280;55534;52.222;5.156;2023-05-28T09:10:33;102267.25;;;18.80;100.00
68544;BME280;55534;52.222;5.156;2023-05-28T09:13:00;102271.63;;;18.94;100.00
68544;BME280;55534;52.222;5.156;2023-05-28T09:15:26;102282.06;;;19.09;100.00
68544;BME280;55534;52.222;5.156;2023-05-28T09:17:52;102244.00;;;18.95;100.00
68544;BME280;55534;52.222;5.156;2023-05-28T09:20:23;102263.16;;;19.07;100.00
68544;BME280;55534;52.222;5.156;2023-05-28T09:22:59;102267.94;;;19.15;100.00
68544;BME280;55534;52.222;5.156;2023-05-28T09:25:39;102257.66;;;19.21;100.00
68544;BME280;55534;52.222;5.156;2023-05-28T09:28:12;102274.81;;;19.40;100.00
68544;BME280;55534;52.222;5.156;2023-05-28T09:30:40;102264.81;;;19.51;100.00
68544;BME280;55534;52.222;5.156;2023-05-28T09:33:07;102247.41;;;19.50;100.00
68544;BME280;55534;52.222;5.156;2023-05-28T09:35:35;102279.81;;;19.89;100.00
68544;BME280;55534;52.222;5.156;2023-05-28T09:38:07;102289.16;;;19.97;100.00
68544;BME280;55534;52.222;5.156;2023-05-28T09:40:43;102288.19;;;20.07;100.00
68544;BME280;55534;52.222;5.156;2023-05-28T09:43:09;102272.97;;;20.11;100.00
68544;BME280;55534;52.222;5.156;2023-05-28T09:45:36;102273.25;;;20.17;100.00
68544;BME280;55534;52.222;5.156;2023-05-28T09:48:02;102266.69;;;20.25;100.00
68544;BME280;55534;52.222;5.156;2023-05-28T09:50:28;102281.03;;;20.48;100.00
68544;BME280;55534;52.222;5.156;2023-05-28T09:52:57;102272.88;;;20.59;100.00
68544;BME280;55534;52.222;5.156;2023-05-28T09:55:25;102271.19;;;20.68;100.00
68544;BME280;55534;52.222;5.156;2023-05-28T09:58:01;102281.88;;;20.85;100.00
68544;BME280;55534;52.222;5.156;2023-05-28T10:00:40;102251.41;;;20.89;100.00
68544;BME280;55534;52.222;5.156;2023-05-28T10:05:39;102248.63;;;21.13;100.00
68544;BME280;55534;52.222;5.156;2023-05-28T10:08:11;102243.63;;;21.15;100.00
68544;BME280;55534;52.222;5.156;2023-05-28T10:10:39;102247.31;;;21.21;100.00
68544;BME280;55534;52.222;5.156;2023-05-28T10:13:06;102245.81;;;21.20;100.00
68544;BME280;55534;52.222;5.156;2023-05-28T10:15:34;102269.50;;;21.31;100.00
68544;BME280;55534;52.222;5.156;2023-05-28T10:18:00;102230.59;;;21.04;100.00
68544;BME280;55534;52.222;5.156;2023-05-28T10:20:26;102254.44;;;21.24;100.00
68544;BME280;55534;52.222;5.156;2023-05-28T10:22:52;102272.44;;;21.37;100.00
68544;BME280;55534;52.222;5.156;2023-05-28T10:25:18;102247.47;;;21.14;100.00
68544;BME280;55534;52.222;5.156;2023-05-28T10:27:45;102270.81;;;21.23;100.00
68544;BME280;55534;52.222;5.156;2023-05-28T10:30:30;102230.66;;;21.01;100.00
68544;BME280;55534;52.222;5.156;2023-05-28T10:32:56;102236.56;;;21.08;100.00
68544;BME280;55534;52.222;5.156;2023-05-28T10:35:21;102236.84;;;21.14;100.00
68544;BME280;55534;52.222;5.156;2023-05-28T10:37:46;102245.41;;;21.22;100.00
68544;BME280;55534;52.222;5.156;2023-05-28T10:40:22;102261.94;;;21.29;100.00
68544;BME280;55534;52.222;5.156;2023-05-28T10:42:47;102265.81;;;21.45;100.00
68544;BME280;55534;52.222;5.156;2023-05-28T10:45:13;102276.66;;;21.67;100.00
68544;BME280;55534;52.222;5.156;2023-05-28T10:47:40;102290.91;;;21.77;100.00
68544;BME280;55534;52.222;5.156;2023-05-28T10:52:35;102272.31;;;21.89;100.00
68544;BME280;55534;52.222;5.156;2023-05-28T10:55:06;102285.63;;;22.06;100.00
68544;BME280;55534;52.222;5.156;2023-05-28T11:00:07;102290.75;;;22.29;100.00
68544;BME280;55534;52.222;5.156;2023-05-28T11:02:39;102265.78;;;22.23;100.00
68544;BME280;55534;52.222;5.156;2023-05-28T11:05:05;102290.78;;;22.42;100.00
68544;BME280;55534;52.222;5.156;2023-05-28T11:07:35;102298.13;;;22.22;100.00
68544;BME280;55534;52.222;5.156;2023-05-28T11:10:05;102293.28;;;22.04;100.00
68544;BME280;55534;52.222;5.156;2023-05-28T11:12:32;102291.84;;;21.99;100.00
68544;BME280;55534;52.222;5.156;2023-05-28T11:14:59;102278.59;;;21.83;100.00
68544;BME280;55534;52.222;5.156;2023-05-28T11:17:25;102270.34;;;21.77;100.00
68544;BME280;55534;52.222;5.156;2023-05-28T11:19:51;102291.81;;;21.86;100.00
68544;BME280;55534;52.222;5.156;2023-05-28T11:22:19;102290.22;;;21.89;100.00
68544;BME280;55534;52.222;5.156;2023-05-28T11:25:03;102234.53;;;21.65;100.00
68544;BME280;55534;52.222;5.156;2023-05-28T11:27:30;102278.09;;;22.17;100.00
68544;BME280;55534;52.222;5.156;2023-05-28T11:30:00;102222.28;;;21.84;100.00
68544;BME280;55534;52.222;5.156;2023-05-28T11:32:32;102286.59;;;22.28;100.00
68544;BME280;55534;52.222;5.156;2023-05-28T11:34:58;102283.72;;;22.36;100.00
68544;BME280;55534;52.222;5.156;2023-05-28T11:37:30;102274.56;;;22.37;100.00
68544;BME280;55534;52.222;5.156;2023-05-28T11:39:58;102136.63;;;21.44;100.00
68544;BME280;55534;52.222;5.156;2023-05-28T11:42:26;102256.97;;;22.10;100.00
68544;BME280;55534;52.222;5.156;2023-05-28T11:44:51;102226.69;;;21.74;100.00
68544;BME280;55534;52.222;5.156;2023-05-28T11:47:18;102273.56;;;22.01;100.00
68544;BME280;55534;52.222;5.156;2023-05-28T11:49:44;102263.94;;;21.91;100.00
68544;BME280;55534;52.222;5.156;2023-05-28T11:52:15;102253.19;;;21.95;100.00
68544;BME280;55534;52.222;5.156;2023-05-28T11:54:42;102228.75;;;21.83;100.00
68544;BME280;55534;52.222;5.156;2023-05-28T11:57:09;102282.56;;;22.37;100.00
68544;BME280;55534;52.222;5.156;2023-05-28T11:59:35;102286.09;;;22.46;100.00
68544;BME280;55534;52.222;5.156;2023-05-28T12:02:16;102274.50;;;22.53;100.00
68544;BME280;55534;52.222;5.156;2023-05-28T12:05:16;102294.06;;;22.88;100.00
68544;BME280;55534;52.222;5.156;2023-05-28T12:07:51;102288.78;;;23.14;100.00
68544;BME280;55534;52.222;5.156;2023-05-28T12:10:17;102295.06;;;23.33;100.00
68544;BME280;55534;52.222;5.156;2023-05-28T12:12:54;102286.31;;;23.45;100.00
68544;BME280;55534;52.222;5.156;2023-05-28T12:15:23;102262.41;;;23.42;100.00
68544;BME280;55534;52.222;5.156;2023-05-28T12:17:53;102208.13;;;23.10;100.00
68544;BME280;55534;52.222;5.156;2023-05-28T12:22:45;102291.84;;;23.51;100.00
68544;BME280;55534;52.222;5.156;2023-05-28T12:25:10;102294.13;;;23.40;100.00
68544;BME280;55534;52.222;5.156;2023-05-28T12:27:37;102291.22;;;23.21;100.00
68544;BME280;55534;52.222;5.156;2023-05-28T12:30:04;102284.69;;;22.97;100.00
68544;BME280;55534;52.222;5.156;2023-05-28T12:32:29;102209.59;;;22.18;100.00
68544;BME280;55534;52.222;5.156;2023-05-28T12:34:54;102270.97;;;22.43;100.00
68544;BME280;55534;52.222;5.156;2023-05-28T12:37:22;102275.13;;;22.44;100.00
68544;BME280;55534;52.222;5.156;2023-05-28T12:39:48;102235.69;;;22.10;100.00
68544;BME280;55534;52.222;5.156;2023-05-28T12:42:13;102268.38;;;22.27;100.00
68544;BME280;55534;52.222;5.156;2023-05-28T12:44:39;102213.44;;;21.87;100.00
68544;BME280;55534;52.222;5.156;2023-05-28T12:47:04;102269.91;;;22.24;100.00
68544;BME280;55534;52.222;5.156;2023-05-28T12:49:30;102234.06;;;22.00;100.00
68544;BME280;55534;52.222;5.156;2023-05-28T12:51:56;102224.97;;;21.97;100.00
68544;BME280;55534;52.222;5.156;2023-05-28T12:54:21;102274.47;;;22.40;100.00